Time;durP1;ratioP1;P1;durP2;ratioP2;P2;SDS_P1;SDS_P2;PMS_P1;PMS_P2;Temp;Humidity;BMP_temperature;BMP_pressure;BME280_temperature;BME280_humidity;BME280_pressure;Samples;Min_cycle;Max_cycle;Signal;HPM_P1;HPM_P2
2022/06/17 00:01:00;;;;;;;14.77;10.07;;;17.40;81.40;;;;;;4970337;28;20490;-56
2022/06/17 00:03:28;;;;;;;8.00;7.50;;;17.40;81.30;;;;;;4972580;28;20418;-56
2022/06/17 00:05:56;;;;;;;7.97;7.43;;;17.40;81.90;;;;;;4970614;28;20988;-57
2022/06/17 00:08:34;;;;;;;8.20;7.67;;;17.40;84.40;;;;;;4972980;28;20865;-57
2022/06/17 00:11:00;;;;;;;8.17;7.67;;;17.30;81.90;;;;;;4970589;28;20462;-56
2022/06/17 00:13:26;;;;;;;7.97;7.37;;;17.30;81.70;;;;;;4971664;28;20482;-55
2022/06/17 00:15:53;;;;;;;8.50;8.00;;;17.30;81.40;;;;;;4974445;28;20538;-58
2022/06/17 00:18:19;;;;;;;8.47;7.93;;;17.40;80.50;;;;;;4980242;28;20438;-56
2022/06/17 00:20:49;;;;;;;7.77;7.37;;;17.30;81.80;;;;;;4971075;28;20478;-57
2022/06/17 00:23:19;;;;;;;8.37;7.87;;;17.30;82.10;;;;;;4970235;28;20451;-57
2022/06/17 00:25:46;;;;;;;8.77;8.20;;;17.20;83.40;;;;;;4971420;28;20918;-54
2022/06/17 00:28:18;;;;;;;8.47;7.67;;;17.20;82.40;;;;;;4970968;28;20442;-56
2022/06/17 00:30:46;;;;;;;8.40;7.90;;;17.20;82.20;;;;;;4970274;28;20527;-57
2022/06/17 00:33:13;;;;;;;7.90;7.20;;;17.20;82.60;;;;;;4971596;28;21004;-57
2022/06/17 00:35:51;;;;;;;8.23;7.70;;;17.20;81.70;;;;;;4971504;28;20443;-54
2022/06/17 00:38:23;;;;;;;8.13;7.53;;;17.20;81.40;;;;;;4970901;28;20509;-58
2022/06/17 00:40:50;;;;;;;7.83;7.33;;;17.20;81.30;;;;;;4970576;28;20462;-56
2022/06/17 00:43:23;;;;;;;7.10;6.70;;;17.20;81.30;;;;;;4970117;28;20824;-56
2022/06/17 00:46:02;;;;;;;8.20;7.60;;;17.10;81.10;;;;;;4978021;28;20453;-57
2022/06/17 00:48:32;;;;;;;7.10;6.60;;;17.10;81.30;;;;;;4970590;28;20793;-57
2022/06/17 00:51:25;;;;;;;7.67;7.17;;;17.10;81.40;;;;;;4979390;28;20450;-56
2022/06/17 00:54:00;;;;;;;7.67;7.20;;;17.10;80.60;;;;;;4967680;28;20450;-57
2022/06/17 00:56:30;;;;;;;7.73;7.27;;;17.00;82.60;;;;;;4969975;28;20524;-57
2022/06/17 00:59:08;;;;;;;7.40;7.00;;;17.00;82.90;;;;;;4970763;28;20438;-57
2022/06/17 01:01:46;;;;;;;7.33;6.83;;;17.00;82.70;;;;;;4969687;28;21019;-56
2022/06/17 01:04:17;;;;;;;7.47;6.87;;;17.00;83.90;;;;;;4971447;28;20520;-57
2022/06/17 01:06:49;;;;;;;7.60;7.00;;;16.90;83.40;;;;;;4961221;28;20438;-57
2022/06/17 01:12:09;;;;;;;7.13;6.73;;;16.90;83.70;;;;;;4968780;28;20444;-57
2022/06/17 01:14:36;;;;;;;7.70;7.07;;;16.80;83.90;;;;;;4982482;28;20489;-56
2022/06/17 01:17:03;;;;;;;7.00;6.50;;;16.80;83.50;;;;;;4961845;28;20455;-57
2022/06/17 01:19:36;;;;;;;7.73;7.13;;;16.80;84.40;;;;;;4969534;28;20987;-57
2022/06/17 01:22:01;;;;;;;7.70;7.17;;;16.70;85.50;;;;;;4969855;28;20445;-57
2022/06/17 01:24:27;;;;;;;7.73;7.10;;;16.70;86.50;;;;;;4971348;28;20426;-57
2022/06/17 01:26:53;;;;;;;7.10;6.60;;;16.60;88.60;;;;;;4968467;28;20183;-54
2022/06/17 01:29:18;;;;;;;7.13;6.53;;;16.60;89.30;;;;;;4971352;28;20186;-54
2022/06/17 01:31:47;;;;;;;7.60;7.00;;;16.50;90.20;;;;;;4968905;28;20562;-57
2022/06/17 01:34:13;;;;;;;7.70;7.20;;;16.40;91.70;;;;;;4971042;28;20249;-56
2022/06/17 01:36:42;;;;;;;7.60;7.13;;;16.40;91.90;;;;;;4968972;28;20444;-55
2022/06/17 01:39:08;;;;;;;7.70;7.20;;;16.30;92.60;;;;;;4971206;28;20409;-57
2022/06/17 01:41:34;;;;;;;7.87;7.27;;;16.30;93.20;;;;;;4967976;28;20447;-55
2022/06/17 01:44:07;;;;;;;8.20;7.60;;;16.30;93.60;;;;;;4990635;28;20174;-55
2022/06/17 01:46:42;;;;;;;7.70;7.10;;;16.30;92.80;;;;;;4978086;28;20196;-56
2022/06/17 01:49:18;;;;;;;8.23;7.60;;;16.20;93.50;;;;;;4969596;28;20748;-56
2022/06/17 01:51:54;;;;;;;7.97;7.27;;;16.20;93.70;;;;;;4957719;28;20494;-58
2022/06/17 01:54:56;;;;;;;7.43;6.90;;;16.10;94.50;;;;;;4971340;28;20393;-57
2022/06/17 01:57:28;;;;;;;7.80;7.20;;;16.10;94.70;;;;;;4968308;28;21009;-57
2022/06/17 01:59:58;;;;;;;7.77;6.93;;;15.90;95.60;;;;;;4968845;28;20475;-57
2022/06/17 02:02:25;;;;;;;7.10;6.70;;;15.80;96.20;;;;;;4969673;28;20524;-55
2022/06/17 02:04:57;;;;;;;7.47;7.07;;;15.70;96.80;;;;;;4969273;28;20853;-57
2022/06/17 02:07:31;;;;;;;7.70;7.20;;;15.70;98.00;;;;;;4970362;28;20485;-56
2022/06/17 02:09:57;;;;;;;7.83;7.30;;;15.60;99.00;;;;;;4980745;28;20821;-56
2022/06/17 02:12:24;;;;;;;7.73;7.23;;;15.50;99.70;;;;;;4968555;28;20432;-58
2022/06/17 02:14:52;;;;;;;7.73;7.23;;;15.40;99.90;;;;;;4969466;28;20192;-56
2022/06/17 02:17:18;;;;;;;8.30;7.70;;;15.40;99.90;;;;;;4969481;28;20479;-55
2022/06/17 02:19:46;;;;;;;8.67;7.90;;;15.30;99.90;;;;;;4968047;28;20575;-56
2022/06/17 02:22:24;;;;;;;8.37;7.77;;;15.20;99.90;;;;;;4969603;28;20999;-56
2022/06/17 02:24:52;;;;;;;7.90;7.30;;;15.20;99.90;;;;;;4970445;28;20925;-57
2022/06/17 02:27:19;;;;;;;8.50;7.80;;;15.10;99.90;;;;;;4970088;28;20385;-55
2022/06/17 02:29:47;;;;;;;8.33;7.73;;;15.00;99.90;;;;;;4968913;28;20444;-56
2022/06/17 02:32:13;;;;;;;8.43;7.77;;;15.00;99.90;;;;;;4972316;28;20428;-57
2022/06/17 02:34:51;;;;;;;7.60;7.10;;;14.90;99.90;;;;;;4973669;28;20494;-56
2022/06/17 02:37:18;;;;;;;7.50;7.00;;;14.90;99.90;;;;;;4978217;28;21069;-56
2022/06/17 02:39:49;;;;;;;8.97;8.10;;;14.80;99.90;;;;;;4977357;28;21049;-56
2022/06/17 02:42:27;;;;;;;8.33;7.83;;;14.80;99.90;;;;;;4967279;28;20448;-56
2022/06/17 02:45:01;;;;;;;7.90;7.37;;;14.80;99.90;;;;;;4965169;28;20446;-57
2022/06/17 02:47:28;;;;;;;8.47;8.07;;;14.70;99.90;;;;;;4966131;28;20529;-56
2022/06/17 02:49:55;;;;;;;8.03;7.33;;;14.70;99.90;;;;;;4956092;28;20849;-57
2022/06/17 02:52:33;;;;;;;7.97;7.27;;;14.70;99.90;;;;;;4966152;28;20432;-57
2022/06/17 02:55:04;;;;;;;7.53;6.93;;;14.60;99.90;;;;;;4967079;28;20512;-54
2022/06/17 02:57:30;;;;;;;7.63;7.13;;;14.60;99.90;;;;;;4965312;28;21165;-58
2022/06/17 03:00:14;;;;;;;7.70;7.20;;;14.60;99.90;;;;;;4970165;28;21342;-57
2022/06/17 03:02:44;;;;;;;7.80;7.30;;;14.50;99.90;;;;;;4966630;28;20448;-57
2022/06/17 03:05:22;;;;;;;7.87;7.37;;;14.50;99.90;;;;;;4966903;28;20556;-58
2022/06/17 03:07:49;;;;;;;8.20;7.50;;;14.50;99.90;;;;;;4968356;28;20443;-57
2022/06/17 03:10:19;;;;;;;7.23;6.83;;;14.50;99.90;;;;;;4970169;28;20475;-57
2022/06/17 03:12:50;;;;;;;7.23;6.80;;;14.40;99.90;;;;;;4966953;28;20442;-58
2022/06/17 03:15:18;;;;;;;7.80;7.17;;;14.40;99.90;;;;;;4967270;28;20444;-57
2022/06/17 03:17:45;;;;;;;8.10;7.60;;;14.30;99.90;;;;;;4970043;28;20448;-53
2022/06/17 03:20:21;;;;;;;7.77;7.27;;;14.30;99.90;;;;;;4973221;28;20979;-55
2022/06/17 03:22:51;;;;;;;7.03;6.43;;;14.30;99.90;;;;;;4973989;28;20450;-56
2022/06/17 03:25:27;;;;;;;8.17;7.37;;;14.20;99.90;;;;;;4988689;28;20470;-55
2022/06/17 03:27:58;;;;;;;8.23;7.53;;;14.20;99.90;;;;;;4977589;28;20431;-55
2022/06/17 03:30:33;;;;;;;7.37;6.80;;;14.20;99.90;;;;;;4972273;28;20514;-53
2022/06/17 03:33:22;;;;;;;6.83;6.33;;;14.10;99.90;;;;;;4970723;28;20455;-54
2022/06/17 03:35:51;;;;;;;7.30;6.70;;;14.10;99.90;;;;;;4968249;28;20482;-56
2022/06/17 03:38:27;;;;;;;8.07;7.47;;;14.10;99.90;;;;;;4977087;28;20443;-53
2022/06/17 03:41:00;;;;;;;7.50;7.00;;;14.10;99.90;;;;;;4961028;28;20485;-54
2022/06/17 03:43:36;;;;;;;7.13;6.63;;;14.10;99.90;;;;;;4971191;28;20450;-56
2022/06/17 03:46:04;;;;;;;7.63;7.13;;;14.10;99.90;;;;;;4968512;28;20599;-56
2022/06/17 03:48:54;;;;;;;6.70;6.20;;;14.10;99.90;;;;;;4969046;28;20509;-54
2022/06/17 03:51:24;;;;;;;8.00;7.40;;;14.00;99.90;;;;;;4965005;28;20798;-56
2022/06/17 03:53:51;;;;;;;7.20;6.70;;;14.00;99.90;;;;;;4971785;28;20428;-54
2022/06/17 03:56:22;;;;;;;6.57;6.17;;;14.10;99.90;;;;;;4970997;28;20432;-54
2022/06/17 03:58:48;;;;;;;7.80;7.20;;;14.10;99.90;;;;;;4970825;28;20521;-56
2022/06/17 04:01:32;;;;;;;6.90;6.40;;;14.10;99.90;;;;;;4971377;28;20523;-57
2022/06/17 04:04:03;;;;;;;6.53;6.03;;;14.10;99.90;;;;;;4968578;28;20524;-56
2022/06/17 04:06:39;;;;;;;7.23;6.63;;;14.10;99.90;;;;;;4959086;28;20858;-56
2022/06/17 04:09:17;;;;;;;7.17;6.57;;;14.10;99.90;;;;;;4980387;28;20515;-56
2022/06/17 04:11:46;;;;;;;7.03;6.43;;;14.20;99.90;;;;;;4971594;28;20802;-53
2022/06/17 04:14:23;;;;;;;7.03;6.53;;;14.20;99.90;;;;;;4970427;28;20436;-56
2022/06/17 04:17:17;;;;;;;7.10;6.60;;;14.20;99.90;;;;;;4972231;28;20906;-54
2022/06/17 04:19:46;;;;;;;7.13;6.57;;;14.30;99.90;;;;;;4954588;28;20448;-55
2022/06/17 04:22:17;;;;;;;7.60;7.00;;;14.30;99.90;;;;;;4955620;28;20583;-58
2022/06/17 04:24:48;;;;;;;7.60;7.00;;;14.40;99.90;;;;;;4955582;28;20798;-57
2022/06/17 04:27:15;;;;;;;6.47;5.97;;;14.40;99.90;;;;;;4955793;28;20444;-56
2022/06/17 04:29:46;;;;;;;8.03;7.23;;;14.50;99.90;;;;;;4959788;28;20974;-53
2022/06/17 04:32:35;;;;;;;7.90;7.20;;;14.50;99.90;;;;;;4949541;28;20429;-58
2022/06/17 04:35:01;;;;;;;7.53;7.00;;;14.50;99.90;;;;;;4947500;28;20460;-57
2022/06/17 04:37:27;;;;;;;7.07;6.50;;;14.60;99.90;;;;;;4944579;28;20449;-57
2022/06/17 04:39:55;;;;;;;7.00;6.50;;;14.70;99.90;;;;;;4967962;28;20341;-57
2022/06/17 04:42:32;;;;;;;6.80;6.20;;;14.70;99.90;;;;;;4967933;28;20448;-58
2022/06/17 04:44:58;;;;;;;7.57;7.07;;;14.70;99.90;;;;;;4959767;28;21283;-58
2022/06/17 04:47:23;;;;;;;8.77;6.77;;;14.70;99.90;;;;;;4971222;28;20447;-58
2022/06/17 04:49:52;;;;;;;7.80;7.10;;;14.80;99.90;;;;;;4971957;28;20240;-56
2022/06/17 04:52:41;;;;;;;9.83;7.70;;;14.80;99.90;;;;;;4970587;28;20440;-58
2022/06/17 04:55:34;;;;;;;7.27;6.57;;;14.80;99.90;;;;;;4971905;28;20508;-51
2022/06/17 04:58:00;;;;;;;7.00;6.50;;;14.90;99.90;;;;;;4976937;28;20448;-57
2022/06/17 05:00:27;;;;;;;7.50;6.90;;;15.00;99.90;;;;;;4968582;28;20527;-56
2022/06/17 05:02:53;;;;;;;7.30;6.70;;;15.00;99.90;;;;;;4970906;28;20432;-56
2022/06/17 05:05:33;;;;;;;8.50;7.00;;;15.10;99.90;;;;;;4971694;28;20926;-54
2022/06/17 05:08:00;;;;;;;7.53;7.03;;;15.10;99.90;;;;;;4974345;28;20451;-55
2022/06/17 05:10:32;;;;;;;7.07;6.47;;;15.10;99.90;;;;;;4988975;28;20463;-57
2022/06/17 05:13:04;;;;;;;8.00;7.27;;;15.20;99.90;;;;;;4966554;28;21378;-57
2022/06/17 05:15:30;;;;;;;7.63;7.10;;;15.20;99.90;;;;;;4971546;28;20479;-56
2022/06/17 05:17:56;;;;;;;6.47;6.03;;;15.30;99.90;;;;;;4970803;28;20445;-57
2022/06/17 05:20:23;;;;;;;6.70;6.20;;;15.40;99.90;;;;;;4971452;28;20197;-57
2022/06/17 05:22:54;;;;;;;7.03;6.57;;;15.40;99.90;;;;;;4969363;28;20445;-53
2022/06/17 05:25:24;;;;;;;7.63;6.50;;;15.50;99.90;;;;;;4971485;28;20425;-56
2022/06/17 05:27:50;;;;;;;6.93;6.40;;;15.60;99.90;;;;;;4969904;28;20951;-56
2022/06/17 05:30:15;;;;;;;7.30;6.70;;;15.60;99.90;;;;;;4970912;28;20467;-58
2022/06/17 05:32:45;;;;;;;6.87;6.17;;;15.70;99.90;;;;;;4969811;28;20491;-57
2022/06/17 05:35:11;;;;;;;8.40;7.30;;;15.70;99.90;;;;;;4971028;28;20264;-57
2022/06/17 05:37:36;;;;;;;7.30;6.60;;;15.80;99.90;;;;;;4977392;28;20447;-55
2022/06/17 05:40:03;;;;;;;7.47;6.80;;;15.90;99.90;;;;;;4970330;28;20783;-55
2022/06/17 05:42:29;;;;;;;6.93;6.50;;;16.00;99.90;;;;;;4969389;28;20192;-57
2022/06/17 05:44:55;;;;;;;8.07;7.27;;;16.00;99.90;;;;;;4970752;28;20491;-56
2022/06/17 05:47:21;;;;;;;6.90;6.40;;;16.10;99.90;;;;;;4970238;28;20434;-54
2022/06/17 05:49:46;;;;;;;7.03;6.47;;;16.30;99.90;;;;;;4970664;28;20297;-57
2022/06/17 05:52:12;;;;;;;6.43;6.03;;;16.40;99.90;;;;;;4970512;28;20181;-55
2022/06/17 05:54:37;;;;;;;6.37;5.90;;;16.40;99.60;;;;;;4970839;28;20268;-58
2022/06/17 05:57:03;;;;;;;6.73;6.13;;;16.40;99.70;;;;;;4966919;28;20353;-55
2022/06/17 05:59:29;;;;;;;7.90;7.20;;;16.50;99.60;;;;;;4970435;28;20709;-55
2022/06/17 06:01:55;;;;;;;7.80;7.10;;;16.50;99.20;;;;;;4969602;28;20420;-56
2022/06/17 06:04:21;;;;;;;6.20;5.70;;;16.50;99.30;;;;;;4968600;28;20276;-57
2022/06/17 06:06:47;;;;;;;7.17;6.50;;;16.60;99.20;;;;;;4976177;28;20214;-56
2022/06/17 06:09:13;;;;;;;7.90;7.10;;;16.60;98.90;;;;;;4969936;28;20434;-57
2022/06/17 06:11:38;;;;;;;6.33;5.93;;;16.80;98.30;;;;;;4970432;28;20630;-57
2022/06/17 06:14:05;;;;;;;6.43;6.03;;;16.90;97.50;;;;;;4969958;28;20273;-54
2022/06/17 06:16:30;;;;;;;6.00;5.60;;;17.00;97.40;;;;;;4970296;28;20661;-58
2022/06/17 06:18:56;;;;;;;6.23;5.83;;;17.10;97.20;;;;;;4969887;28;20469;-56
2022/06/17 06:21:22;;;;;;;6.13;5.70;;;17.10;97.40;;;;;;4965895;28;20195;-58
2022/06/17 06:23:48;;;;;;;5.80;5.50;;;17.20;96.50;;;;;;4960358;28;20446;-57
2022/06/17 06:26:18;;;;;;;7.93;5.80;;;17.30;96.60;;;;;;4970324;28;20428;-58
2022/06/17 06:28:44;;;;;;;6.23;5.73;;;17.40;95.50;;;;;;4968669;28;20195;-58
2022/06/17 06:31:28;;;;;;;6.73;6.20;;;17.60;94.20;;;;;;4969899;28;20918;-57
2022/06/17 06:33:54;;;;;;;6.07;5.60;;;17.60;94.30;;;;;;4964449;28;20954;-57
2022/06/17 06:36:20;;;;;;;6.10;5.70;;;17.70;93.20;;;;;;4967706;28;20498;-55
2022/06/17 06:38:46;;;;;;;6.33;5.73;;;17.80;93.10;;;;;;4970049;28;21247;-58
2022/06/17 06:41:12;;;;;;;5.97;5.60;;;17.80;93.20;;;;;;4959290;28;20435;-52
2022/06/17 06:43:39;;;;;;;7.40;5.53;;;17.90;93.00;;;;;;4969509;28;20188;-57
2022/06/17 06:46:10;;;;;;;5.50;5.10;;;18.00;92.80;;;;;;4970143;28;20913;-55
2022/06/17 06:48:36;;;;;;;5.10;4.70;;;18.00;92.50;;;;;;4961911;28;20447;-58
2022/06/17 06:51:02;;;;;;;5.00;4.60;;;18.10;92.00;;;;;;4954209;28;20461;-55
2022/06/17 06:53:28;;;;;;;5.10;4.60;;;18.20;92.50;;;;;;4978131;28;20458;-57
2022/06/17 06:55:53;;;;;;;5.10;4.80;;;18.30;91.10;;;;;;4961990;28;20452;-57
2022/06/17 06:58:21;;;;;;;5.00;4.60;;;18.40;89.40;;;;;;4973361;28;20525;-55
2022/06/17 07:00:53;;;;;;;4.83;4.53;;;18.50;90.10;;;;;;4973806;28;20233;-56
2022/06/17 07:03:19;;;;;;;5.20;4.90;;;18.60;89.30;;;;;;4972614;28;20436;-55
2022/06/17 07:05:48;;;;;;;5.57;5.17;;;18.70;88.60;;;;;;4962919;28;21010;-58
2022/06/17 07:08:16;;;;;;;5.93;5.53;;;18.80;88.80;;;;;;4970496;28;20722;-56
2022/06/17 07:10:43;;;;;;;5.90;4.90;;;18.80;89.30;;;;;;4972153;28;21165;-58
2022/06/17 07:13:09;;;;;;;5.50;5.00;;;19.00;88.60;;;;;;4973457;28;20432;-58
2022/06/17 07:15:37;;;;;;;5.30;4.80;;;19.10;85.90;;;;;;4973039;28;20432;-57
2022/06/17 07:18:05;;;;;;;4.87;4.57;;;19.20;85.20;;;;;;4973540;28;20220;-57
2022/06/17 07:20:38;;;;;;;5.50;5.10;;;19.40;82.70;;;;;;4972103;28;20447;-55
2022/06/17 07:23:22;;;;;;;5.60;5.10;;;19.40;82.00;;;;;;4972516;28;20536;-57
2022/06/17 07:25:48;;;;;;;5.37;5.07;;;19.50;81.20;;;;;;4972385;28;20436;-55
2022/06/17 07:28:16;;;;;;;6.00;5.50;;;19.50;81.30;;;;;;4976896;28;20444;-55
2022/06/17 07:30:45;;;;;;;6.10;5.50;;;19.60;81.30;;;;;;4973078;28;20559;-56
2022/06/17 07:33:11;;;;;;;5.60;5.10;;;19.70;80.10;;;;;;4970705;28;20478;-57
2022/06/17 07:35:38;;;;;;;13.07;5.53;;;19.90;79.40;;;;;;4973076;28;20428;-54
2022/06/17 07:40:59;;;;;;;5.03;4.60;;;20.00;77.00;;;;;;5000316;28;20937;-56
2022/06/17 07:43:25;;;;;;;4.57;4.27;;;20.10;77.40;;;;;;4968933;28;20439;-55
2022/06/17 07:45:51;;;;;;;5.50;5.20;;;20.30;75.60;;;;;;4972397;28;20216;-56
2022/06/17 07:48:18;;;;;;;5.50;4.70;;;20.30;75.50;;;;;;4969824;28;20344;-54
2022/06/17 07:50:44;;;;;;;5.10;4.80;;;20.40;75.90;;;;;;4972192;28;20554;-56
2022/06/17 07:53:11;;;;;;;5.30;5.00;;;20.50;73.70;;;;;;4970320;28;20468;-54
2022/06/17 07:55:38;;;;;;;5.60;5.30;;;20.70;71.90;;;;;;4977244;28;20483;-52
2022/06/17 07:58:04;;;;;;;6.10;5.60;;;20.80;71.30;;;;;;4976314;28;20442;-56
2022/06/17 08:00:42;;;;;;;5.40;5.10;;;20.90;70.20;;;;;;4977153;28;21347;-56
2022/06/17 08:03:08;;;;;;;4.70;4.40;;;21.10;68.70;;;;;;4971071;28;20476;-56
2022/06/17 08:05:35;;;;;;;5.50;5.10;;;21.30;67.90;;;;;;4967990;28;20976;-56
2022/06/17 08:08:04;;;;;;;5.80;5.40;;;21.40;68.10;;;;;;4961784;28;20457;-56
2022/06/17 08:10:33;;;;;;;5.60;5.10;;;21.60;65.60;;;;;;4971070;28;20507;-52
2022/06/17 08:12:59;;;;;;;5.60;5.10;;;21.90;65.00;;;;;;4969424;28;20465;-53
2022/06/17 08:15:26;;;;;;;5.53;5.20;;;22.00;64.50;;;;;;4972052;28;20430;-55
2022/06/17 08:17:52;;;;;;;6.27;5.67;;;22.20;64.50;;;;;;4971149;28;20482;-58
2022/06/17 08:20:22;;;;;;;5.30;5.10;;;22.50;61.40;;;;;;4961860;28;20439;-57
2022/06/17 08:22:47;;;;;;;5.43;4.97;;;22.80;58.80;;;;;;4971629;28;20831;-53
2022/06/17 08:25:14;;;;;;;5.60;5.13;;;22.80;59.30;;;;;;4970009;28;20746;-57
2022/06/17 08:27:51;;;;;;;4.93;4.57;;;22.90;58.90;;;;;;4976181;28;20262;-54
2022/06/17 08:30:21;;;;;;;5.47;5.00;;;22.90;58.00;;;;;;4969768;28;20479;-56
2022/06/17 08:32:55;;;;;;;5.40;5.10;;;23.00;57.10;;;;;;4968566;28;20554;-55
2022/06/17 08:35:33;;;;;;;5.20;4.90;;;23.10;56.50;;;;;;4971034;28;20431;-54
2022/06/17 08:38:05;;;;;;;5.87;5.37;;;23.20;56.10;;;;;;4976505;28;20450;-54
2022/06/17 08:40:52;;;;;;;4.80;4.50;;;23.20;55.30;;;;;;4970972;28;20448;-56
2022/06/17 08:43:28;;;;;;;5.67;5.20;;;23.10;55.50;;;;;;4960346;28;20956;-55
2022/06/17 08:46:05;;;;;;;5.47;5.00;;;23.20;53.60;;;;;;4970796;28;20445;-54
2022/06/17 08:49:01;;;;;;;4.80;4.40;;;23.20;54.90;;;;;;4971277;28;20423;-54
2022/06/17 08:51:48;;;;;;;5.23;4.83;;;23.30;54.60;;;;;;4969588;28;20503;-56
2022/06/17 08:54:41;;;;;;;5.07;4.70;;;23.40;53.70;;;;;;4970886;28;20921;-56
2022/06/17 08:57:31;;;;;;;5.10;4.80;;;23.40;53.90;;;;;;4962710;28;20428;-56
2022/06/17 08:59:59;;;;;;;5.23;4.83;;;23.60;52.90;;;;;;4969958;28;20564;-55
2022/06/17 09:02:50;;;;;;;5.07;4.80;;;23.80;52.60;;;;;;4970779;28;20504;-58
2022/06/17 09:05:37;;;;;;;5.77;5.47;;;23.90;52.20;;;;;;4969415;28;20801;-55
2022/06/17 09:08:36;;;;;;;5.57;5.17;;;24.10;52.50;;;;;;4970474;28;20518;-53
2022/06/17 09:11:27;;;;;;;5.13;4.83;;;24.50;51.10;;;;;;4969338;28;20469;-56
2022/06/17 09:14:27;;;;;;;5.17;4.87;;;24.80;50.80;;;;;;4970056;28;20441;-57
2022/06/17 09:17:14;;;;;;;5.70;5.40;;;25.00;48.90;;;;;;4972990;28;20441;-58
2022/06/17 09:19:45;;;;;;;5.20;4.73;;;25.10;49.10;;;;;;4970326;28;20435;-54
2022/06/17 09:22:28;;;;;;;5.10;4.90;;;25.50;47.90;;;;;;4978328;28;20466;-55
2022/06/17 09:25:01;;;;;;;5.83;5.50;;;25.90;46.70;;;;;;4958325;28;20439;-53
2022/06/17 09:27:34;;;;;;;5.20;4.80;;;26.40;46.00;;;;;;4969946;28;20440;-54
2022/06/17 09:30:12;;;;;;;4.63;4.43;;;26.90;44.10;;;;;;4967305;28;20483;-55
2022/06/17 09:32:48;;;;;;;4.70;4.50;;;26.90;42.50;;;;;;4968909;28;20449;-58
2022/06/17 09:35:39;;;;;;;5.80;5.17;;;27.30;40.80;;;;;;4970150;28;20439;-55
2022/06/17 09:38:13;;;;;;;5.57;5.27;;;27.70;37.50;;;;;;4969774;28;20808;-55
2022/06/17 09:41:01;;;;;;;5.37;5.10;;;27.50;36.90;;;;;;4969348;28;20436;-57
2022/06/17 09:43:31;;;;;;;4.87;4.57;;;27.50;39.00;;;;;;4958310;28;20428;-55
2022/06/17 09:46:31;;;;;;;4.50;4.30;;;28.00;38.00;;;;;;4969198;28;20424;-55
2022/06/17 09:49:11;;;;;;;4.97;4.67;;;28.40;36.50;;;;;;4969751;28;20420;-56
2022/06/17 09:51:49;;;;;;;4.70;4.40;;;27.50;35.50;;;;;;4971052;28;20988;-56
2022/06/17 09:54:34;;;;;;;5.17;4.70;;;26.60;37.70;;;;;;4975788;28;20845;-53
2022/06/17 09:57:09;;;;;;;4.80;4.60;;;26.90;38.10;;;;;;4974990;28;20444;-54
2022/06/17 09:59:43;;;;;;;4.93;4.73;;;27.50;37.30;;;;;;4969860;28;20431;-56
2022/06/17 10:02:40;;;;;;;4.80;4.50;;;28.50;36.30;;;;;;4969245;28;20495;-55
2022/06/17 10:05:24;;;;;;;4.63;4.27;;;29.60;34.00;;;;;;4959806;28;20427;-54
2022/06/17 10:07:59;;;;;;;5.17;4.87;;;30.90;30.50;;;;;;4965012;28;20440;-56
2022/06/17 10:10:31;;;;;;;4.83;4.53;;;31.20;30.70;;;;;;4971675;28;20816;-54
2022/06/17 10:13:33;;;;;;;5.00;4.60;;;31.40;29.30;;;;;;4962537;28;20475;-56
2022/06/17 10:19:47;;;;;;;4.43;4.23;;;29.80;29.20;;;;;;4960459;28;20895;-57
2022/06/17 10:23:00;;;;;;;4.83;4.63;;;30.10;29.90;;;;;;4968919;28;20532;-55
2022/06/17 10:25:32;;;;;;;7.33;5.17;;;29.70;29.20;;;;;;4983290;28;20451;-54
2022/06/17 10:28:13;;;;;;;4.93;4.73;;;30.30;30.80;;;;;;4979907;28;20493;-53
2022/06/17 10:30:54;;;;;;;6.20;5.77;;;31.40;28.80;;;;;;4975823;28;20598;-54
2022/06/17 10:33:20;;;;;;;5.53;5.23;;;31.20;27.40;;;;;;4980674;28;20434;-56
2022/06/17 10:35:47;;;;;;;5.83;5.43;;;29.90;28.50;;;;;;4976409;28;20427;-55
2022/06/17 10:38:45;;;;;;;5.37;4.87;;;29.20;30.00;;;;;;4975086;28;20466;-53
2022/06/17 10:41:12;;;;;;;5.40;5.00;;;29.30;30.30;;;;;;4959639;28;20447;-54
2022/06/17 10:43:44;;;;;;;5.43;5.13;;;29.70;29.90;;;;;;4975105;28;20472;-57
2022/06/17 10:46:17;;;;;;;5.00;4.70;;;30.30;29.00;;;;;;4976401;28;20431;-57
2022/06/17 10:49:09;;;;;;;6.63;4.60;;;31.00;27.70;;;;;;4970424;28;20444;-54
2022/06/17 10:51:36;;;;;;;5.80;5.50;;;31.70;27.20;;;;;;4962433;28;20548;-57
2022/06/17 10:54:24;;;;;;;5.30;5.00;;;32.30;26.50;;;;;;4972158;28;20952;-57
2022/06/17 10:57:04;;;;;;;5.10;4.80;;;33.10;25.60;;;;;;4955970;28;20474;-58
2022/06/17 10:59:41;;;;;;;5.03;4.73;;;33.50;24.20;;;;;;4954975;28;20787;-56
2022/06/17 11:02:23;;;;;;;5.10;4.70;;;33.40;24.10;;;;;;4955143;28;20938;-57
2022/06/17 11:04:51;;;;;;;5.37;5.10;;;33.20;24.00;;;;;;4973979;28;20448;-58
2022/06/17 11:07:22;;;;;;;4.80;4.60;;;33.30;23.90;;;;;;4958283;28;20422;-55
2022/06/17 11:09:56;;;;;;;4.90;4.60;;;34.00;22.90;;;;;;4954996;28;20500;-58
2022/06/17 11:12:27;;;;;;;4.30;4.10;;;33.90;23.80;;;;;;4959588;28;20489;-58
2022/06/17 11:14:56;;;;;;;4.73;4.53;;;34.30;23.60;;;;;;4961634;28;20419;-55
2022/06/17 11:17:41;;;;;;;4.83;4.53;;;34.70;21.30;;;;;;4959948;28;20427;-55
2022/06/17 11:20:15;;;;;;;4.93;4.73;;;34.70;21.90;;;;;;4956183;28;20428;-57
2022/06/17 11:22:58;;;;;;;4.53;4.33;;;34.70;21.50;;;;;;4958084;28;20508;-53
2022/06/17 11:25:35;;;;;;;4.80;4.47;;;35.00;21.70;;;;;;4959087;28;20504;-55
2022/06/17 11:28:19;;;;;;;6.80;5.13;;;34.60;21.50;;;;;;4955270;28;20421;-56
2022/06/17 11:30:57;;;;;;;5.03;4.73;;;34.50;21.10;;;;;;4958625;28;20928;-57
2022/06/17 11:33:35;;;;;;;4.80;4.60;;;34.70;21.10;;;;;;4955378;28;20444;-57
2022/06/17 11:36:19;;;;;;;5.20;4.90;;;35.40;20.00;;;;;;4963622;28;20420;-57
2022/06/17 11:38:45;;;;;;;5.20;4.90;;;35.10;20.70;;;;;;4972954;28;20491;-57
2022/06/17 11:41:20;;;;;;;4.93;4.73;;;35.40;20.40;;;;;;4971895;28;20836;-58
2022/06/17 11:43:47;;;;;;;4.23;4.03;;;35.60;20.20;;;;;;4969524;28;20455;-57
2022/06/17 11:46:25;;;;;;;4.83;4.33;;;35.60;19.60;;;;;;4972699;28;20776;-57
2022/06/17 11:48:59;;;;;;;4.87;4.53;;;35.90;19.80;;;;;;4970642;28;20542;-59
2022/06/17 11:51:32;;;;;;;4.03;3.73;;;36.00;20.10;;;;;;4972377;28;20495;-58
2022/06/17 11:54:02;;;;;;;5.03;4.63;;;36.10;18.90;;;;;;4970869;28;20440;-57
2022/06/17 11:56:33;;;;;;;4.80;4.60;;;36.20;18.80;;;;;;4971986;28;20977;-55
2022/06/17 11:59:07;;;;;;;4.97;4.60;;;35.70;18.70;;;;;;4969472;28;20420;-58
2022/06/17 12:01:33;;;;;;;4.97;4.67;;;34.90;19.70;;;;;;4973664;28;20492;-58
2022/06/17 12:03:59;;;;;;;5.80;5.40;;;34.30;20.10;;;;;;4971626;28;20842;-59
2022/06/17 12:06:31;;;;;;;5.60;5.20;;;32.80;21.90;;;;;;4971220;28;20424;-58
2022/06/17 12:09:08;;;;;;;5.57;5.07;;;31.50;23.20;;;;;;4971957;28;20180;-55
2022/06/17 12:11:50;;;;;;;5.40;5.00;;;30.70;24.00;;;;;;4971896;28;20566;-58
2022/06/17 12:14:27;;;;;;;5.00;4.60;;;29.70;25.00;;;;;;4969022;28;20777;-59
2022/06/17 12:16:54;;;;;;;5.20;5.00;;;29.10;26.30;;;;;;4959801;28;20412;-59
2022/06/17 12:19:21;;;;;;;5.40;5.10;;;28.50;26.70;;;;;;4970705;28;20907;-57
2022/06/17 12:21:49;;;;;;;4.97;4.73;;;28.00;28.70;;;;;;4966394;28;20472;-58
2022/06/17 12:24:42;;;;;;;5.13;4.83;;;28.00;27.80;;;;;;4971047;28;20413;-57
2022/06/17 12:27:17;;;;;;;5.33;4.70;;;27.70;28.10;;;;;;4952614;29;20872;-58
2022/06/17 12:30:12;;;;;;;5.50;4.60;;;27.10;29.10;;;;;;4962361;28;20477;-58
2022/06/17 12:32:52;;;;;;;6.93;4.57;;;27.20;29.80;;;;;;4976664;28;20500;-58
2022/06/17 12:35:31;;;;;;;5.43;4.90;;;27.10;29.30;;;;;;4983948;28;20465;-59
2022/06/17 12:38:00;;;;;;;4.37;4.17;;;27.20;29.30;;;;;;4971633;28;20543;-59
2022/06/17 12:40:41;;;;;;;4.50;4.20;;;27.30;29.20;;;;;;4970999;28;20447;-59
2022/06/17 12:43:57;;;;;;;4.87;4.47;;;27.50;28.70;;;;;;4971380;28;20435;-57
2022/06/17 12:46:39;;;;;;;5.37;4.83;;;27.70;28.00;;;;;;4987055;28;20993;-58
2022/06/17 12:55:22;;;;;;;5.40;5.10;;;28.40;28.40;;;;;;4970201;28;20540;-51
2022/06/17 12:58:11;;;;;;;4.47;4.17;;;29.10;28.00;;;;;;4975184;28;20564;-54
2022/06/17 13:00:43;;;;;;;5.40;5.00;;;30.00;26.10;;;;;;4967906;28;20495;-51
2022/06/17 13:03:23;;;;;;;5.07;4.77;;;30.70;25.20;;;;;;4971805;28;20532;-55
2022/06/17 13:05:50;;;;;;;4.70;4.40;;;31.40;24.00;;;;;;4964510;28;20436;-54
2022/06/17 13:08:30;;;;;;;5.00;4.70;;;32.20;23.80;;;;;;4970526;28;20424;-51
2022/06/17 13:11:10;;;;;;;4.23;4.03;;;32.90;22.70;;;;;;4969120;28;20464;-54
2022/06/17 13:14:01;;;;;;;5.57;5.27;;;33.60;21.60;;;;;;4970177;28;20539;-54
2022/06/17 13:16:45;;;;;;;4.67;4.47;;;34.20;20.90;;;;;;4968682;28;20829;-55
2022/06/17 13:19:29;;;;;;;4.00;3.80;;;34.20;19.90;;;;;;4969374;28;20801;-55
2022/06/17 13:22:13;;;;;;;4.40;4.20;;;33.70;20.50;;;;;;4969706;28;20436;-54
2022/06/17 13:25:08;;;;;;;4.70;4.27;;;33.20;20.60;;;;;;4970165;28;20965;-52
2022/06/17 13:27:36;;;;;;;5.00;4.60;;;33.70;21.30;;;;;;4969290;28;20475;-56
2022/06/17 13:30:30;;;;;;;4.63;4.43;;;33.50;20.60;;;;;;4969812;28;20472;-53
2022/06/17 13:33:24;;;;;;;4.47;4.27;;;31.60;22.30;;;;;;4969373;28;20424;-53